Time;durP1;ratioP1;P1;durP2;ratioP2;P2;SDS_P1;SDS_P2;PMS_P1;PMS_P2;Temp;Humidity;BMP_temperature;BMP_pressure;BME280_temperature;BME280_humidity;BME280_pressure;Samples;Min_cycle;Max_cycle;Signal;HPM_P1;HPM_P2
2023/04/21 00:01:07;;;;;;;12.87;11.50;;;7.80;99.90;;;;;;5018466;28;20479;-61
2023/04/21 00:03:37;;;;;;;13.23;11.77;;;7.80;99.90;;;;;;5017915;28;20476;-62
2023/04/21 00:06:06;;;;;;;16.77;11.80;;;7.80;99.90;;;;;;5012236;28;20529;-61
2023/04/21 00:08:39;;;;;;;15.20;12.90;;;7.80;99.90;;;;;;5013443;28;20904;-61
2023/04/21 00:11:07;;;;;;;13.73;11.90;;;7.80;99.90;;;;;;5017978;28;21107;-61
2023/04/21 00:13:35;;;;;;;13.20;11.90;;;7.80;99.90;;;;;;5016833;28;23623;-62
2023/04/21 00:16:03;;;;;;;13.03;11.20;;;7.80;99.90;;;;;;5012783;28;20463;-61
2023/04/21 00:18:31;;;;;;;12.77;11.53;;;7.70;99.90;;;;;;5010516;28;20513;-61
2023/04/21 00:21:01;;;;;;;14.00;12.00;;;7.70;99.90;;;;;;5008954;28;20483;-64
2023/04/21 00:23:28;;;;;;;13.17;11.87;;;7.70;99.90;;;;;;5008944;28;20475;-62
2023/04/21 00:25:56;;;;;;;16.50;12.30;;;7.70;99.90;;;;;;5014015;28;21011;-61
2023/04/21 00:28:24;;;;;;;13.67;12.23;;;7.70;99.90;;;;;;5007554;28;20502;-62
2023/04/21 00:30:54;;;;;;;18.27;13.23;;;7.70;99.90;;;;;;5007434;28;20582;-62
2023/04/21 00:33:22;;;;;;;13.80;11.23;;;7.70;99.90;;;;;;4996461;28;22082;-61
2023/04/21 00:35:50;;;;;;;13.67;12.20;;;7.70;99.90;;;;;;5006054;28;20468;-62
2023/04/21 00:38:19;;;;;;;13.50;11.73;;;7.70;99.90;;;;;;4997177;28;20530;-62
2023/04/21 00:40:47;;;;;;;12.70;11.20;;;7.70;99.90;;;;;;5003503;28;20474;-61
2023/04/21 00:43:15;;;;;;;12.90;11.50;;;7.70;99.90;;;;;;5014236;28;20478;-62
2023/04/21 00:45:45;;;;;;;17.40;11.60;;;7.70;99.90;;;;;;5004174;28;20479;-61
2023/04/21 00:48:13;;;;;;;18.00;11.70;;;7.70;99.90;;;;;;5005397;28;20487;-61
2023/04/21 00:50:45;;;;;;;12.60;11.10;;;7.70;99.90;;;;;;4997842;28;22120;-61
2023/04/21 00:53:15;;;;;;;13.30;11.30;;;7.70;99.90;;;;;;5008093;28;20522;-62
2023/04/21 00:55:44;;;;;;;12.63;11.33;;;7.70;99.90;;;;;;5003522;28;20486;-61
2023/04/21 00:58:12;;;;;;;12.63;11.20;;;7.70;99.90;;;;;;5012150;28;20495;-61
2023/04/21 01:00:41;;;;;;;13.03;11.70;;;7.70;99.90;;;;;;5007024;28;21267;-61
2023/04/21 01:03:09;;;;;;;15.57;11.40;;;7.70;99.90;;;;;;4995874;28;20479;-61
2023/04/21 01:05:38;;;;;;;12.87;11.57;;;7.70;99.90;;;;;;4995589;28;20467;-62
2023/04/21 01:08:06;;;;;;;12.30;11.00;;;7.70;99.90;;;;;;5008319;28;20976;-61
2023/04/21 01:10:34;;;;;;;12.70;11.40;;;7.60;99.90;;;;;;5000915;28;20482;-61
2023/04/21 01:13:04;;;;;;;13.37;11.00;;;7.70;99.90;;;;;;5008764;28;20992;-61
2023/04/21 01:15:32;;;;;;;13.43;11.97;;;7.70;99.90;;;;;;5007371;28;20480;-61
2023/04/21 01:18:00;;;;;;;14.83;12.67;;;7.60;99.90;;;;;;4993204;28;20471;-61
2023/04/21 01:20:29;;;;;;;16.70;13.03;;;7.60;99.90;;;;;;4990877;28;20606;-60
2023/04/21 01:22:58;;;;;;;15.00;11.90;;;7.60;99.90;;;;;;4990094;28;20475;-61
2023/04/21 01:25:27;;;;;;;13.83;12.43;;;7.60;99.90;;;;;;4989067;28;21059;-61
2023/04/21 01:27:55;;;;;;;18.93;12.37;;;7.60;99.90;;;;;;4998768;28;20479;-62
2023/04/21 01:30:23;;;;;;;14.37;12.20;;;7.60;99.90;;;;;;4999500;28;20463;-62
2023/04/21 01:32:51;;;;;;;12.87;11.40;;;7.60;99.90;;;;;;4989459;28;20490;-62
2023/04/21 01:35:19;;;;;;;13.13;11.73;;;7.60;99.90;;;;;;4996830;28;20549;-61
2023/04/21 01:37:47;;;;;;;13.53;11.53;;;7.60;99.90;;;;;;5005329;28;20463;-61
2023/04/21 01:40:16;;;;;;;13.10;11.47;;;7.60;99.90;;;;;;5017991;28;20539;-61
2023/04/21 01:42:45;;;;;;;13.47;12.10;;;7.50;99.90;;;;;;5003842;28;20479;-61
2023/04/21 01:45:13;;;;;;;13.83;12.37;;;7.50;99.90;;;;;;5010045;28;20475;-61
2023/04/21 01:47:41;;;;;;;13.60;12.10;;;7.50;99.90;;;;;;5007395;28;20543;-62
2023/04/21 01:50:09;;;;;;;15.87;12.33;;;7.50;99.90;;;;;;5003652;28;20491;-62
2023/04/21 01:52:37;;;;;;;13.37;11.97;;;7.50;99.90;;;;;;4998219;28;20483;-61
2023/04/21 01:55:06;;;;;;;13.23;11.83;;;7.50;99.90;;;;;;4997666;28;20495;-62
2023/04/21 01:57:36;;;;;;;12.30;11.07;;;7.50;99.90;;;;;;5000444;28;20468;-62
2023/04/21 02:00:04;;;;;;;17.30;11.53;;;7.40;99.90;;;;;;4998176;28;20493;-62
2023/04/21 02:02:32;;;;;;;13.40;11.80;;;7.50;99.90;;;;;;4998015;28;21268;-62
2023/04/21 02:05:00;;;;;;;12.73;11.43;;;7.40;99.90;;;;;;5001269;28;20467;-62
2023/04/21 02:07:28;;;;;;;13.60;11.43;;;7.50;99.90;;;;;;5022156;28;20865;-65
2023/04/21 02:09:56;;;;;;;13.43;11.97;;;7.50;99.90;;;;;;5024113;28;20542;-61
2023/04/21 02:12:24;;;;;;;14.80;13.30;;;7.50;99.90;;;;;;5025016;28;20499;-62
2023/04/21 02:14:53;;;;;;;17.10;12.40;;;7.40;99.90;;;;;;5014693;28;20495;-61
2023/04/21 02:17:21;;;;;;;14.90;12.03;;;7.40;99.90;;;;;;4996859;28;20542;-62
2023/04/21 02:19:49;;;;;;;12.43;11.23;;;7.40;99.90;;;;;;5003098;28;20518;-62
2023/04/21 02:22:17;;;;;;;13.23;11.40;;;7.40;99.90;;;;;;4994126;28;20704;-62
2023/04/21 02:24:45;;;;;;;13.30;10.77;;;7.40;99.90;;;;;;5003525;28;20845;-62
2023/04/21 02:27:13;;;;;;;12.43;11.20;;;7.40;99.90;;;;;;5000694;28;20486;-61
2023/04/21 02:29:41;;;;;;;13.67;12.27;;;7.50;99.90;;;;;;4998769;28;20510;-61
2023/04/21 02:32:10;;;;;;;14.93;11.03;;;7.50;99.90;;;;;;5003957;28;20491;-62
2023/04/21 02:34:52;;;;;;;12.83;11.57;;;7.40;99.90;;;;;;4998562;28;21289;-62
2023/04/21 02:37:20;;;;;;;12.60;11.40;;;7.50;99.90;;;;;;5010410;28;20478;-61
2023/04/21 02:39:48;;;;;;;12.87;11.57;;;7.40;99.90;;;;;;5012267;28;20499;-61
2023/04/21 02:42:16;;;;;;;11.70;10.17;;;7.40;99.90;;;;;;5011020;28;20825;-61
2023/04/21 02:44:44;;;;;;;13.07;10.63;;;7.40;99.90;;;;;;5015134;28;20508;-62
2023/04/21 02:47:15;;;;;;;14.10;11.87;;;7.40;99.90;;;;;;5011800;28;20482;-62
2023/04/21 02:49:43;;;;;;;11.60;10.27;;;7.40;99.90;;;;;;5015462;28;20506;-61
2023/04/21 02:52:11;;;;;;;11.70;10.50;;;7.40;99.90;;;;;;5018171;28;20848;-67
2023/04/21 02:54:39;;;;;;;13.80;10.93;;;7.40;99.90;;;;;;5013334;28;20502;-62
2023/04/21 02:57:07;;;;;;;11.30;10.20;;;7.40;99.90;;;;;;5028109;28;20467;-65
2023/04/21 02:59:35;;;;;;;14.17;10.50;;;7.40;99.90;;;;;;5027371;28;20502;-62
2023/04/21 03:02:03;;;;;;;12.53;11.27;;;7.40;99.90;;;;;;5032035;28;20492;-61
2023/04/21 03:04:33;;;;;;;12.60;11.30;;;7.40;99.90;;;;;;5021692;28;20468;-61
2023/04/21 03:07:01;;;;;;;14.63;11.27;;;7.40;99.90;;;;;;5011945;28;20463;-61
2023/04/21 03:09:29;;;;;;;12.93;11.13;;;7.40;99.90;;;;;;5006929;28;21132;-61
2023/04/21 03:11:57;;;;;;;12.10;10.90;;;7.40;99.90;;;;;;5009733;28;20492;-61
2023/04/21 03:14:25;;;;;;;13.60;11.53;;;7.40;99.90;;;;;;5017515;28;20488;-62
2023/04/21 03:16:53;;;;;;;12.37;10.80;;;7.50;99.90;;;;;;5004309;28;20467;-61
2023/04/21 03:19:21;;;;;;;13.27;10.83;;;7.40;99.90;;;;;;5001606;28;20608;-61
2023/04/21 03:21:50;;;;;;;12.40;11.20;;;7.50;99.90;;;;;;4992052;28;20980;-64
2023/04/21 03:24:18;;;;;;;12.63;10.43;;;7.50;99.90;;;;;;4997620;28;20463;-61
2023/04/21 03:26:46;;;;;;;11.93;10.50;;;7.50;99.90;;;;;;4995881;28;20476;-62
2023/04/21 03:29:14;;;;;;;11.37;10.23;;;7.50;99.90;;;;;;5004467;28;20507;-62
2023/04/21 03:31:42;;;;;;;12.77;11.07;;;7.50;99.90;;;;;;4999734;28;20500;-62
2023/04/21 03:34:10;;;;;;;14.67;11.53;;;7.50;99.90;;;;;;5006608;28;20476;-62
2023/04/21 03:36:38;;;;;;;12.20;10.83;;;7.50;99.90;;;;;;5014956;28;20464;-61
2023/04/21 03:39:07;;;;;;;12.33;11.10;;;7.40;99.90;;;;;;5015698;28;20503;-61
2023/04/21 03:41:47;;;;;;;13.47;11.40;;;7.40;99.90;;;;;;5011531;28;20511;-62
2023/04/21 03:44:15;;;;;;;13.43;11.17;;;7.40;99.90;;;;;;5013718;28;20476;-62
2023/04/21 03:46:43;;;;;;;12.27;10.30;;;7.40;99.90;;;;;;5016075;28;20974;-62
2023/04/21 03:49:11;;;;;;;13.53;12.10;;;7.40;99.90;;;;;;5006014;28;20498;-62
2023/04/21 03:51:39;;;;;;;12.03;10.83;;;7.40;99.90;;;;;;4996075;28;20499;-61
2023/04/21 03:54:08;;;;;;;12.23;10.80;;;7.40;99.90;;;;;;5012784;28;20502;-62
2023/04/21 03:56:36;;;;;;;12.50;11.23;;;7.40;99.90;;;;;;5016347;28;20475;-61
2023/04/21 03:59:04;;;;;;;12.43;10.83;;;7.30;99.90;;;;;;5006251;28;20487;-61
2023/04/21 04:01:33;;;;;;;11.70;10.50;;;7.30;99.90;;;;;;5005828;28;20919;-62
2023/04/21 04:04:01;;;;;;;12.30;10.53;;;7.30;99.90;;;;;;5006892;28;20479;-61
2023/04/21 04:06:30;;;;;;;11.87;10.73;;;7.30;99.90;;;;;;4998652;28;20460;-61
2023/04/21 04:09:01;;;;;;;11.97;10.87;;;7.30;99.90;;;;;;4998947;28;20586;-61
2023/04/21 04:11:30;;;;;;;12.37;11.00;;;7.30;99.90;;;;;;5000052;28;20910;-61
2023/04/21 04:13:58;;;;;;;12.40;11.20;;;7.30;99.90;;;;;;5010250;28;20493;-61
2023/04/21 04:16:27;;;;;;;12.90;11.40;;;7.30;99.90;;;;;;4998046;28;20499;-62
2023/04/21 04:18:56;;;;;;;14.70;12.37;;;7.30;99.90;;;;;;5005832;28;20494;-61
2023/04/21 04:21:24;;;;;;;13.53;11.43;;;7.30;99.90;;;;;;5002799;28;20841;-62
2023/04/21 04:23:52;;;;;;;12.63;10.83;;;7.30;99.90;;;;;;5000607;28;21079;-61
2023/04/21 04:26:21;;;;;;;13.10;11.77;;;7.30;99.90;;;;;;5001420;28;20463;-61
2023/04/21 04:28:51;;;;;;;13.77;11.70;;;7.30;99.90;;;;;;5000852;28;20637;-62
2023/04/21 04:31:19;;;;;;;12.80;11.50;;;7.30;99.90;;;;;;5008029;28;20491;-61
2023/04/21 04:33:47;;;;;;;12.77;11.57;;;7.30;99.90;;;;;;5010147;28;20475;-62
2023/04/21 04:36:15;;;;;;;12.13;10.30;;;7.30;99.90;;;;;;5016815;28;20503;-61
2023/04/21 04:38:44;;;;;;;15.27;10.90;;;7.30;99.90;;;;;;5012341;28;20495;-62
2023/04/21 04:41:12;;;;;;;13.50;11.60;;;7.40;99.90;;;;;;5006289;28;20834;-62
2023/04/21 04:43:40;;;;;;;13.87;11.70;;;7.30;99.90;;;;;;5017431;28;20477;-62
2023/04/21 04:46:11;;;;;;;12.53;11.33;;;7.30;99.90;;;;;;5014164;28;20474;-62
2023/04/21 04:48:40;;;;;;;13.03;11.40;;;7.40;99.90;;;;;;5007183;28;20622;-61
2023/04/21 04:51:08;;;;;;;13.07;11.77;;;7.40;99.90;;;;;;5005159;28;22719;-61
2023/04/21 04:53:36;;;;;;;12.57;11.27;;;7.40;99.90;;;;;;5009438;28;20966;-61
2023/04/21 04:56:04;;;;;;;13.30;11.43;;;7.40;99.90;;;;;;5001962;28;21043;-61
2023/04/21 04:58:32;;;;;;;15.87;12.07;;;7.40;99.90;;;;;;5004696;28;20499;-61
2023/04/21 05:01:12;;;;;;;12.50;10.97;;;7.40;99.90;;;;;;5004787;28;20518;-61
2023/04/21 05:03:40;;;;;;;11.80;10.53;;;7.50;99.90;;;;;;5002171;28;20471;-61
2023/04/21 05:06:09;;;;;;;12.03;10.80;;;7.50;99.90;;;;;;5003630;28;20572;-60
2023/04/21 05:08:38;;;;;;;13.83;11.97;;;7.50;99.90;;;;;;5007316;28;20530;-60
2023/04/21 05:11:07;;;;;;;12.87;11.43;;;7.50;99.90;;;;;;4998535;28;21248;-60
2023/04/21 05:13:35;;;;;;;12.23;10.40;;;7.60;99.90;;;;;;4999549;28;20621;-61
2023/04/21 05:16:08;;;;;;;13.93;11.50;;;7.60;99.90;;;;;;4994531;28;20490;-60
2023/04/21 05:18:38;;;;;;;13.93;10.90;;;7.60;99.90;;;;;;4997491;28;20613;-61
2023/04/21 05:21:06;;;;;;;12.07;10.77;;;7.70;99.90;;;;;;4970788;28;20497;-61
2023/04/21 05:23:34;;;;;;;13.03;11.67;;;7.70;99.90;;;;;;4991875;28;20478;-61
2023/04/21 05:26:02;;;;;;;12.10;11.00;;;7.70;99.90;;;;;;4988962;28;20476;-60
2023/04/21 05:28:34;;;;;;;13.33;12.03;;;7.80;99.90;;;;;;4990226;28;20495;-61
2023/04/21 05:31:02;;;;;;;12.20;10.90;;;7.80;99.90;;;;;;4980915;28;20570;-61
2023/04/21 05:33:31;;;;;;;12.20;11.10;;;7.80;99.90;;;;;;4997412;28;20474;-63
2023/04/21 05:36:00;;;;;;;11.70;10.50;;;7.90;99.90;;;;;;5001867;28;20515;-62
2023/04/21 05:38:28;;;;;;;12.63;11.43;;;7.90;99.90;;;;;;5015055;28;20487;-61
2023/04/21 05:40:56;;;;;;;11.47;10.30;;;8.00;99.90;;;;;;5011021;28;20884;-61
2023/04/21 05:43:24;;;;;;;11.77;10.57;;;8.00;99.90;;;;;;5015125;28;20477;-62
2023/04/21 05:45:52;;;;;;;13.23;10.77;;;8.10;99.90;;;;;;5009334;28;20472;-61
2023/04/21 05:48:20;;;;;;;12.30;11.10;;;8.10;99.90;;;;;;5018748;28;21089;-61
2023/04/21 05:50:48;;;;;;;13.00;11.63;;;8.20;99.90;;;;;;5011497;28;20468;-61
2023/04/21 05:53:17;;;;;;;14.47;11.40;;;8.30;99.90;;;;;;5018161;28;20467;-61
2023/04/21 05:55:45;;;;;;;14.50;11.80;;;8.30;99.90;;;;;;5016174;28;20497;-61
2023/04/21 05:58:13;;;;;;;11.93;10.83;;;8.40;99.90;;;;;;5011447;28;20495;-61
2023/04/21 06:00:41;;;;;;;12.70;11.60;;;8.40;99.90;;;;;;5015198;28;20469;-61
2023/04/21 06:03:09;;;;;;;12.77;10.43;;;8.50;99.90;;;;;;5016654;28;20482;-61
2023/04/21 06:05:37;;;;;;;12.87;11.47;;;8.60;99.90;;;;;;5017013;28;20464;-61
2023/04/21 06:08:05;;;;;;;12.50;11.20;;;8.60;99.90;;;;;;5018291;28;20551;-62
2023/04/21 06:10:35;;;;;;;12.47;11.27;;;8.70;99.90;;;;;;5016968;28;20463;-62
2023/04/21 06:13:03;;;;;;;12.37;11.17;;;8.80;99.90;;;;;;5018350;28;20547;-62
2023/04/21 06:15:30;;;;;;;12.33;11.13;;;8.80;99.90;;;;;;5013886;28;20558;-62
2023/04/21 06:17:58;;;;;;;13.50;11.37;;;8.90;99.90;;;;;;5017694;28;20463;-62
2023/04/21 06:20:27;;;;;;;12.03;10.93;;;8.90;99.90;;;;;;5020360;28;20517;-62
2023/04/21 06:22:55;;;;;;;13.40;12.07;;;9.00;99.90;;;;;;5020821;28;20464;-63
2023/04/21 06:25:23;;;;;;;11.90;10.67;;;9.10;99.90;;;;;;5020900;28;20472;-62
2023/04/21 06:27:52;;;;;;;14.53;11.60;;;9.10;99.90;;;;;;5021724;28;20972;-62
2023/04/21 06:30:20;;;;;;;13.07;11.77;;;9.20;99.90;;;;;;5016750;28;20490;-62
2023/04/21 06:32:48;;;;;;;11.83;10.60;;;9.30;99.90;;;;;;5016315;28;21052;-61
2023/04/21 06:35:16;;;;;;;12.40;11.00;;;9.30;99.90;;;;;;5020785;28;20560;-63
2023/04/21 06:37:44;;;;;;;12.30;11.20;;;9.40;99.90;;;;;;5016443;28;20491;-62
2023/04/21 06:40:14;;;;;;;11.43;10.33;;;9.50;99.90;;;;;;5014955;28;20491;-62
2023/04/21 06:42:42;;;;;;;11.13;10.03;;;9.50;99.90;;;;;;5014435;28;20480;-63
2023/04/21 06:45:12;;;;;;;12.20;11.10;;;9.60;99.90;;;;;;5009710;28;20770;-61
2023/04/21 06:47:40;;;;;;;12.40;11.10;;;9.70;99.90;;;;;;5019982;28;21119;-61
2023/04/21 06:50:09;;;;;;;12.90;11.47;;;9.80;99.90;;;;;;5020657;28;20499;-62
2023/04/21 06:52:37;;;;;;;13.20;11.80;;;9.80;99.90;;;;;;5020051;28;20486;-62
2023/04/21 06:55:06;;;;;;;11.57;10.37;;;9.90;99.90;;;;;;5017854;28;20537;-61
2023/04/21 06:57:34;;;;;;;12.43;11.10;;;10.00;99.90;;;;;;5019829;28;20488;-61
2023/04/21 07:00:04;;;;;;;12.00;10.80;;;10.00;99.90;;;;;;5016998;28;20507;-61
2023/04/21 07:02:33;;;;;;;11.87;10.70;;;10.10;99.90;;;;;;5015205;28;20498;-61
2023/04/21 07:05:01;;;;;;;11.97;10.73;;;10.20;99.90;;;;;;5008199;28;20471;-61
2023/04/21 07:07:29;;;;;;;11.37;10.37;;;10.30;99.90;;;;;;5011503;28;20965;-61
2023/04/21 07:09:57;;;;;;;11.83;10.70;;;10.30;99.90;;;;;;5016724;28;20515;-62
2023/04/21 07:12:25;;;;;;;11.70;10.53;;;10.40;99.90;;;;;;5017904;28;20571;-62
2023/04/21 07:14:53;;;;;;;11.70;10.50;;;10.50;99.90;;;;;;5020223;28;20476;-60
2023/04/21 07:17:21;;;;;;;12.30;11.03;;;10.50;99.90;;;;;;5018826;28;20519;-61
2023/04/21 07:19:50;;;;;;;11.97;10.87;;;10.60;99.90;;;;;;5018786;28;20496;-61
2023/04/21 07:22:18;;;;;;;11.43;10.43;;;10.70;99.90;;;;;;5019360;28;20487;-61
2023/04/21 07:24:46;;;;;;;14.00;11.10;;;10.70;99.90;;;;;;5017621;28;20474;-61
2023/04/21 07:27:17;;;;;;;12.07;10.80;;;10.80;99.90;;;;;;5021074;28;20471;-62
2023/04/21 07:29:46;;;;;;;11.67;10.57;;;10.90;99.90;;;;;;5009626;28;20494;-61
2023/04/21 07:32:14;;;;;;;12.30;11.10;;;11.00;99.90;;;;;;5016028;28;20883;-61
2023/04/21 07:34:42;;;;;;;11.50;10.40;;;11.00;99.90;;;;;;5014543;28;20552;-61
2023/04/21 07:37:11;;;;;;;11.03;10.13;;;11.10;99.90;;;;;;5018425;28;20503;-61
2023/04/21 07:39:39;;;;;;;12.10;10.90;;;11.20;99.90;;;;;;5018427;28;20495;-61
2023/04/21 07:42:09;;;;;;;11.07;10.07;;;11.20;99.90;;;;;;5016152;28;20485;-61
2023/04/21 07:44:37;;;;;;;10.90;9.90;;;11.30;99.90;;;;;;5013262;28;20471;-62
2023/04/21 07:47:05;;;;;;;11.60;10.50;;;11.40;99.90;;;;;;5015229;28;20468;-61
2023/04/21 07:49:33;;;;;;;11.93;10.57;;;11.40;99.90;;;;;;5019035;28;20593;-61
2023/04/21 07:52:01;;;;;;;13.27;10.80;;;11.50;99.90;;;;;;5020803;28;20483;-61
2023/04/21 07:54:30;;;;;;;12.17;10.97;;;11.60;99.90;;;;;;5023059;28;20471;-62
2023/04/21 07:57:00;;;;;;;11.20;10.00;;;11.80;99.90;;;;;;5020231;28;20498;-62
2023/04/21 07:59:28;;;;;;;11.20;10.10;;;11.80;99.90;;;;;;5011720;28;20487;-62
2023/04/21 08:01:56;;;;;;;11.33;9.33;;;11.90;99.90;;;;;;5016166;28;20486;-61
2023/04/21 08:04:24;;;;;;;10.97;9.47;;;12.00;99.90;;;;;;5018731;28;20468;-61
2023/04/21 08:06:52;;;;;;;10.87;9.77;;;12.10;99.90;;;;;;5018669;28;21394;-61
2023/04/21 08:09:21;;;;;;;11.37;10.27;;;12.20;99.90;;;;;;5017992;28;20564;-61
2023/04/21 08:11:50;;;;;;;11.00;9.97;;;12.30;99.90;;;;;;5015862;28;20484;-61
2023/04/21 08:14:18;;;;;;;11.40;10.30;;;12.40;99.90;;;;;;5014940;28;21034;-61
2023/04/21 08:16:47;;;;;;;11.17;9.97;;;12.50;99.90;;;;;;5020234;28;20587;-61
2023/04/21 08:19:15;;;;;;;11.17;10.07;;;12.50;99.90;;;;;;5016990;28;20483;-61
2023/04/21 08:21:43;;;;;;;10.87;9.90;;;12.60;99.90;;;;;;5018386;28;20518;-62
2023/04/21 08:24:11;;;;;;;9.83;8.93;;;12.70;99.90;;;;;;5021035;28;20485;-61
2023/04/21 08:26:39;;;;;;;10.63;9.63;;;12.80;99.90;;;;;;5019194;28;20471;-62
2023/04/21 08:29:09;;;;;;;11.20;10.10;;;12.90;99.90;;;;;;5019789;28;20502;-62
2023/04/21 08:31:37;;;;;;;13.23;9.63;;;13.00;99.90;;;;;;5020179;28;20480;-62
2023/04/21 08:34:06;;;;;;;10.00;9.00;;;13.10;99.90;;;;;;5016632;28;20530;-62
2023/04/21 08:36:34;;;;;;;11.00;9.97;;;13.20;99.90;;;;;;5020275;28;20500;-62
2023/04/21 08:39:02;;;;;;;9.50;8.70;;;13.30;99.90;;;;;;5017781;28;20492;-62
2023/04/21 08:41:30;;;;;;;10.83;9.93;;;13.40;99.90;;;;;;5010315;28;20637;-61
2023/04/21 08:43:58;;;;;;;11.40;10.33;;;13.50;99.90;;;;;;5018773;28;20557;-60
2023/04/21 08:46:28;;;;;;;10.07;9.17;;;13.60;99.90;;;;;;5017492;28;20577;-61
2023/04/21 08:48:59;;;;;;;10.70;9.70;;;13.70;99.90;;;;;;5021094;28;20869;-61
2023/04/21 08:51:29;;;;;;;10.80;9.80;;;13.80;99.90;;;;;;5018035;28;20483;-61
2023/04/21 08:53:57;;;;;;;10.40;9.50;;;13.90;99.90;;;;;;5020440;28;20990;-60
2023/04/21 08:56:25;;;;;;;11.60;10.50;;;13.90;99.90;;;;;;5013111;28;20471;-62
2023/04/21 08:58:54;;;;;;;10.20;9.30;;;14.00;99.90;;;;;;5020832;28;20553;-61
2023/04/21 09:01:22;;;;;;;11.20;10.20;;;14.10;99.90;;;;;;5017371;28;20494;-61
2023/04/21 09:03:52;;;;;;;11.17;10.13;;;14.20;99.90;;;;;;5015985;28;21295;-61
2023/04/21 09:06:20;;;;;;;10.57;9.67;;;14.30;99.90;;;;;;5015962;28;20463;-60
2023/04/21 09:08:55;;;;;;;11.30;10.30;;;14.40;99.90;;;;;;5019573;28;20494;-61
2023/04/21 09:11:24;;;;;;;10.50;9.70;;;14.50;99.90;;;;;;5017070;28;20488;-60
2023/04/21 09:13:56;;;;;;;13.17;10.50;;;14.60;99.90;;;;;;5013669;28;20494;-61
2023/04/21 09:16:25;;;;;;;11.17;10.07;;;14.70;99.90;;;;;;5019734;28;20474;-60
2023/04/21 09:18:55;;;;;;;11.27;10.27;;;14.80;99.90;;;;;;5016416;28;22396;-60
2023/04/21 09:21:27;;;;;;;11.20;10.30;;;14.90;99.90;;;;;;5012742;28;20493;-61
2023/04/21 09:24:05;;;;;;;10.57;9.67;;;15.00;99.90;;;;;;5015224;28;20510;-61
2023/04/21 09:26:33;;;;;;;10.40;9.50;;;15.10;99.90;;;;;;5017464;28;20801;-64
2023/04/21 09:29:06;;;;;;;11.70;10.70;;;15.20;99.90;;;;;;5018921;28;20494;-61
2023/04/21 09:31:35;;;;;;;10.47;9.60;;;15.30;99.90;;;;;;5017125;28;20483;-61
2023/04/21 09:34:18;;;;;;;11.40;10.40;;;15.40;99.90;;;;;;5016301;28;20468;-60
2023/04/21 09:36:47;;;;;;;11.00;10.00;;;15.50;99.90;;;;;;5019485;28;20489;-60
2023/04/21 09:39:15;;;;;;;11.27;10.27;;;15.60;99.90;;;;;;5018826;28;20498;-60
2023/04/21 09:41:46;;;;;;;12.80;10.00;;;15.70;99.90;;;;;;5013952;28;20507;-60
2023/04/21 09:44:14;;;;;;;10.30;9.30;;;15.90;99.90;;;;;;5019690;28;20482;-60
2023/04/21 09:46:43;;;;;;;11.67;10.57;;;15.90;99.90;;;;;;5017564;28;20487;-60
2023/04/21 09:49:16;;;;;;;12.43;11.10;;;16.00;99.90;;;;;;5018531;28;20544;-60
2023/04/21 09:51:45;;;;;;;10.77;9.73;;;16.10;99.90;;;;;;5018107;28;20493;-60
2023/04/21 09:54:18;;;;;;;9.60;8.80;;;16.20;99.90;;;;;;5020906;28;20459;-60
2023/04/21 09:57:00;;;;;;;10.53;9.63;;;16.30;99.90;;;;;;5021559;28;20471;-60
2023/04/21 09:59:32;;;;;;;10.57;9.47;;;16.40;99.90;;;;;;5019578;28;20495;-61
2023/04/21 10:02:01;;;;;;;10.13;9.23;;;16.40;99.90;;;;;;5022473;28;20484;-60
2023/04/21 10:04:32;;;;;;;10.53;9.53;;;16.50;99.90;;;;;;5022116;28;21054;-61
2023/04/21 10:07:00;;;;;;;10.00;9.20;;;16.60;99.90;;;;;;5013626;28;20479;-61
2023/04/21 10:09:41;;;;;;;11.07;10.10;;;16.70;99.90;;;;;;5022425;28;20479;-61
2023/04/21 10:12:10;;;;;;;10.40;9.50;;;16.80;99.90;;;;;;5019318;28;20849;-61
2023/04/21 10:14:37;;;;;;;11.30;10.30;;;16.80;99.90;;;;;;5020196;28;20491;-61
2023/04/21 10:17:08;;;;;;;10.83;9.77;;;16.90;99.90;;;;;;5020508;28;20468;-61
2023/04/21 10:19:47;;;;;;;9.43;8.63;;;17.10;99.90;;;;;;5021089;28;20969;-61
2023/04/21 10:22:25;;;;;;;10.03;9.13;;;17.20;99.90;;;;;;5018049;28;20487;-60
2023/04/21 10:24:55;;;;;;;10.50;9.60;;;17.30;99.90;;;;;;5016754;28;20468;-60
2023/04/21 10:27:34;;;;;;;10.83;9.83;;;17.30;99.90;;;;;;5018799;28;20476;-60
2023/04/21 10:30:18;;;;;;;10.20;9.30;;;17.50;99.90;;;;;;5013512;28;20491;-60
2023/04/21 10:32:46;;;;;;;10.90;9.80;;;17.60;99.90;;;;;;5020158;28;21032;-60
2023/04/21 10:35:21;;;;;;;11.40;8.97;;;17.70;99.90;;;;;;5017161;28;20471;-61
2023/04/21 10:37:50;;;;;;;10.80;9.80;;;17.70;99.90;;;;;;5021876;28;20553;-61
2023/04/21 10:40:39;;;;;;;9.67;8.77;;;17.80;99.90;;;;;;5019946;28;20554;-61
2023/04/21 10:43:45;;;;;;;11.27;10.10;;;17.90;99.90;;;;;;5017434;28;20516;-60
2023/04/21 10:46:33;;;;;;;9.97;9.00;;;18.00;99.90;;;;;;5021897;28;20474;-61
2023/04/21 10:49:09;;;;;;;10.60;9.50;;;18.10;99.90;;;;;;5021696;28;20983;-61
2023/04/21 10:52:07;;;;;;;9.57;8.73;;;18.10;99.90;;;;;;5018636;28;20479;-61
2023/04/21 10:54:44;;;;;;;10.97;9.93;;;18.20;99.90;;;;;;5022309;28;20524;-61
2023/04/21 10:57:14;;;;;;;11.10;9.43;;;18.30;99.90;;;;;;5016424;28;20529;-60
2023/04/21 10:59:42;;;;;;;10.03;9.17;;;18.40;99.90;;;;;;5021248;28;20526;-61
2023/04/21 11:02:12;;;;;;;9.63;8.93;;;18.40;99.90;;;;;;5018967;28;20484;-61
2023/04/21 11:04:44;;;;;;;9.43;8.70;;;18.50;99.90;;;;;;5013695;28;21327;-60
2023/04/21 11:07:15;;;;;;;10.53;9.30;;;18.60;99.90;;;;;;5017879;28;20478;-60
2023/04/21 11:09:47;;;;;;;10.03;9.13;;;18.70;99.90;;;;;;5013409;28;20934;-60
2023/04/21 11:12:17;;;;;;;10.37;9.47;;;18.80;99.90;;;;;;5012745;28;21024;-60
2023/04/21 11:14:47;;;;;;;10.63;9.70;;;18.80;99.90;;;;;;5018786;28;20464;-60
2023/04/21 11:17:16;;;;;;;9.30;8.50;;;18.90;99.90;;;;;;5021347;28;20471;-61
2023/04/21 11:19:46;;;;;;;10.60;9.60;;;19.00;99.90;;;;;;5019089;28;20506;-60
2023/04/21 11:22:16;;;;;;;9.67;8.80;;;19.10;99.90;;;;;;5020402;28;20827;-61
2023/04/21 11:24:45;;;;;;;10.13;9.23;;;19.20;99.90;;;;;;5020891;28;20993;-61
2023/04/21 11:27:14;;;;;;;9.53;8.83;;;19.30;99.90;;;;;;5000271;28;21591;-61
2023/04/21 11:29:42;;;;;;;9.90;9.00;;;19.40;99.90;;;;;;5007229;28;20500;-62
2023/04/21 11:32:11;;;;;;;9.00;8.30;;;19.50;99.90;;;;;;5001589;28;21027;-62
2023/04/21 11:34:39;;;;;;;9.93;9.03;;;19.60;99.90;;;;;;5003074;28;20491;-63
2023/04/21 11:37:08;;;;;;;9.43;8.60;;;19.70;99.90;;;;;;5003070;28;20481;-62
2023/04/21 11:39:40;;;;;;;8.83;8.13;;;19.80;99.90;;;;;;5007253;28;20502;-63
2023/04/21 11:42:08;;;;;;;8.87;8.03;;;20.00;99.90;;;;;;5008024;28;20483;-63
2023/04/21 11:44:38;;;;;;;8.70;7.90;;;20.10;99.90;;;;;;5005332;28;20518;-62
2023/04/21 11:47:14;;;;;;;9.93;8.93;;;20.20;99.90;;;;;;5005253;28;20496;-63
2023/04/21 11:49:46;;;;;;;11.10;8.93;;;20.40;99.90;;;;;;5007941;28;21164;-62
2023/04/21 11:52:22;;;;;;;9.77;8.77;;;20.60;99.90;;;;;;5015065;28;21142;-62
2023/04/21 11:54:55;;;;;;;9.60;8.70;;;20.60;93.90;;;;;;5016724;28;20486;-62
2023/04/21 11:57:24;;;;;;;9.90;8.90;;;20.60;79.50;;;;;;5014557;28;20486;-62
2023/04/21 11:59:53;;;;;;;9.60;8.80;;;20.70;73.60;;;;;;5018314;28;20487;-61
2023/04/21 12:02:25;;;;;;;8.90;8.30;;;20.70;76.40;;;;;;5004651;28;21823;-63
2023/04/21 12:05:04;;;;;;;9.40;8.70;;;20.80;78.00;;;;;;5008447;28;21303;-63
2023/04/21 12:07:33;;;;;;;9.80;8.83;;;20.90;64.50;;;;;;5016069;28;20542;-64
2023/04/21 12:10:08;;;;;;;9.57;8.67;;;20.90;65.70;;;;;;5003898;28;20488;-64
2023/04/21 12:12:37;;;;;;;9.10;8.40;;;21.00;76.60;;;;;;5004689;28;20956;-63
2023/04/21 12:15:06;;;;;;;10.17;9.07;;;21.10;99.80;;;;;;5004010;28;22972;-63
2023/04/21 12:17:38;;;;;;;8.93;8.13;;;21.30;99.90;;;;;;4997626;28;20479;-63
2023/04/21 12:20:08;;;;;;;8.97;8.27;;;21.40;99.90;;;;;;4999840;28;20491;-62
2023/04/21 12:22:36;;;;;;;10.30;8.30;;;21.50;99.90;;;;;;5004249;28;20499;-62
2023/04/21 12:25:07;;;;;;;9.00;8.10;;;21.70;99.90;;;;;;5005825;28;20463;-63
2023/04/21 12:27:36;;;;;;;8.37;7.67;;;21.70;99.90;;;;;;5019756;28;20495;-63
2023/04/21 12:30:05;;;;;;;8.97;8.30;;;21.90;99.90;;;;;;5016431;28;21009;-63
2023/04/21 12:32:34;;;;;;;9.03;8.23;;;22.00;99.90;;;;;;5005402;28;20497;-63
2023/04/21 12:35:04;;;;;;;9.20;8.30;;;22.10;99.90;;;;;;5002338;28;20495;-63
2023/04/21 12:37:32;;;;;;;9.53;8.63;;;22.20;97.70;;;;;;5009453;28;20464;-63
2023/04/21 12:39:59;;;;;;;9.80;9.00;;;22.30;95.00;;;;;;5013554;28;20499;-63
2023/04/21 12:42:29;;;;;;;9.43;8.50;;;22.30;91.50;;;;;;5011144;28;20490;-63
2023/04/21 12:44:57;;;;;;;8.50;7.80;;;22.30;91.50;;;;;;5013422;28;20883;-62
2023/04/21 12:47:25;;;;;;;9.53;8.37;;;22.20;91.10;;;;;;5008959;28;20471;-62